Impacts METAR Board
IDs:

KPIT - Pittsburgh Intl, PA, US

Updated at: 1400 UTC 24 Aug 2019
Potential Impact None Slight Moderate High
Time 24/02Z 24/03Z 24/04Z 24/05Z 24/06Z 24/07Z 24/08Z 24/09Z 24/10Z 24/11Z 24/12Z 24/13Z 24/14Z
Temp66 65 64 62 61 60 58 57 57 57 58 61 65
Dewpt53 53 52 51 51 50 50 50 50 50 51 52 51
Altim30.14 30.16 30.17 30.18 30.18 30.17 30.18 30.19 30.20 30.22 30.24 30.24 30.24
VIS10 10 10 10 10 10 10 10 10 10 10 10 10
CIG65 -- -- -- -- -- -- -- -- -- -- -- --
CoverBKNSCTFEWSCTFEWFEWFEWFEWFEWFEWFEWFEWFEW
FltCatVFRVFRVFRVFRVFRVFRVFRVFRVFRVFRVFRVFRVFR
WX--------------------------
WDir3603601020302020802020308090
WSpd9 10 8 9 7 5 5 3 4 5 3 4 6
WGst-- -- -- -- -- -- -- -- -- -- -- -- --
Raw hourly METARs
KPIT 240151Z 36009KT 10SM FEW042 BKN065 19/12 A3014 RMK AO2 SLP210 T01890117
KPIT 240251Z 36010KT 10SM SCT065 18/12 A3016 RMK AO2 SLP215 T01830117 53016
KPIT 240351Z 01008KT 10SM FEW065 18/11 A3017 RMK AO2 SLP219 T01780111
KPIT 240451Z 02009KT 10SM SCT065 17/11 A3018 RMK AO2 SLP221 T01670106 402280167
KPIT 240551Z 03007KT 10SM FEW065 16/11 A3018 RMK AO2 SLP220 T01610106 10206 20161 51005
KPIT 240651Z 02005KT 10SM FEW065 16/10 A3017 RMK AO2 SLP220 T01560100
KPIT 240751Z 02005KT 10SM FEW065 14/10 A3018 RMK AO2 SLP222 T01440100
KPIT 240851Z 08003KT 10SM FEW065 14/10 A3019 RMK AO2 SLP225 T01390100 53003
KPIT 240951Z 02004KT 10SM FEW048 14/10 A3020 RMK AO2 SLP229 T01390100
KPIT 241051Z 02005KT 10SM FEW049 14/10 A3022 RMK AO2 SLP237 T01390100
KPIT 241151Z 03003KT 10SM FEW048 FEW070 14/11 A3024 RMK AO2 SLP246 T01440106 10161 20133 53019
KPIT 241251Z 08004KT 10SM FEW070 16/11 A3024 RMK AO2 SLP244 T01610111
KPIT 241351Z 09006KT 10SM FEW070 18/11 A3024 RMK AO2 SLP242 T01830106



Page loaded:  14:17 UTC  |   07:17 AM Pacific  |   08:17 AM Mountain  |   09:17 AM Central  |   10:17 AM Eastern

 

ADVISORIES

FORECASTS

FORECASTS

OBSERVATIONS

USER TOOLS

ABOUT US